sensor_id;sensor_type;location;lat;lon;timestamp;P1;durP1;ratioP1;P2;durP2;ratioP2
5813;SDS011;2933;52.302;8.134;2022-08-21T00:03:22;2.50;;;2.30;;
5813;SDS011;2933;52.302;8.134;2022-08-21T00:08:24;2.43;;;1.90;;
5813;SDS011;2933;52.302;8.134;2022-08-21T00:13:26;3.43;;;2.20;;
5813;SDS011;2933;52.302;8.134;2022-08-21T00:18:29;4.60;;;2.60;;
5813;SDS011;2933;52.302;8.134;2022-08-21T00:23:32;4.57;;;1.67;;
5813;SDS011;2933;52.302;8.134;2022-08-21T00:28:35;2.47;;;1.80;;
5813;SDS011;2933;52.302;8.134;2022-08-21T00:33:38;2.90;;;2.30;;
5813;SDS011;2933;52.302;8.134;2022-08-21T00:38:40;2.33;;;2.13;;
5813;SDS011;2933;52.302;8.134;2022-08-21T00:43:41;1.87;;;1.77;;
5813;SDS011;2933;52.302;8.134;2022-08-21T00:48:44;5.33;;;1.70;;
5813;SDS011;2933;52.302;8.134;2022-08-21T00:53:46;2.60;;;2.10;;
5813;SDS011;2933;52.302;8.134;2022-08-21T00:58:48;3.83;;;2.10;;
5813;SDS011;2933;52.302;8.134;2022-08-21T01:03:51;3.43;;;2.10;;
5813;SDS011;2933;52.302;8.134;2022-08-21T01:08:53;4.00;;;2.07;;
5813;SDS011;2933;52.302;8.134;2022-08-21T01:13:54;2.40;;;1.93;;
5813;SDS011;2933;52.302;8.134;2022-08-21T01:18:57;2.07;;;1.90;;
5813;SDS011;2933;52.302;8.134;2022-08-21T01:24:00;4.87;;;2.00;;
5813;SDS011;2933;52.302;8.134;2022-08-21T01:29:04;2.27;;;2.17;;
5813;SDS011;2933;52.302;8.134;2022-08-21T01:34:10;3.00;;;2.30;;
5813;SDS011;2933;52.302;8.134;2022-08-21T01:39:13;3.50;;;1.90;;
5813;SDS011;2933;52.302;8.134;2022-08-21T01:44:15;2.07;;;1.97;;
5813;SDS011;2933;52.302;8.134;2022-08-21T01:49:17;4.03;;;1.90;;
5813;SDS011;2933;52.302;8.134;2022-08-21T01:54:20;4.17;;;2.47;;
5813;SDS011;2933;52.302;8.134;2022-08-21T01:59:22;2.07;;;1.97;;
5813;SDS011;2933;52.302;8.134;2022-08-21T02:04:25;2.47;;;2.10;;
5813;SDS011;2933;52.302;8.134;2022-08-21T02:09:28;2.60;;;2.00;;
5813;SDS011;2933;52.302;8.134;2022-08-21T02:14:29;8.40;;;2.40;;
5813;SDS011;2933;52.302;8.134;2022-08-21T02:19:31;3.20;;;2.13;;
5813;SDS011;2933;52.302;8.134;2022-08-21T02:24:34;2.00;;;1.90;;
5813;SDS011;2933;52.302;8.134;2022-08-21T02:29:36;2.73;;;2.20;;
5813;SDS011;2933;52.302;8.134;2022-08-21T02:34:38;4.57;;;2.10;;
5813;SDS011;2933;52.302;8.134;2022-08-21T02:39:41;4.00;;;2.20;;
5813;SDS011;2933;52.302;8.134;2022-08-21T02:44:42;5.60;;;2.30;;
5813;SDS011;2933;52.302;8.134;2022-08-21T02:49:44;2.93;;;2.27;;
5813;SDS011;2933;52.302;8.134;2022-08-21T02:54:47;3.43;;;2.57;;
5813;SDS011;2933;52.302;8.134;2022-08-21T02:59:49;3.23;;;2.13;;
5813;SDS011;2933;52.302;8.134;2022-08-21T03:04:50;2.43;;;2.33;;
5813;SDS011;2933;52.302;8.134;2022-08-21T03:09:53;2.27;;;2.17;;
5813;SDS011;2933;52.302;8.134;2022-08-21T03:14:55;2.63;;;2.43;;
5813;SDS011;2933;52.302;8.134;2022-08-21T03:19:56;6.80;;;2.60;;
5813;SDS011;2933;52.302;8.134;2022-08-21T03:25:00;2.37;;;2.27;;
5813;SDS011;2933;52.302;8.134;2022-08-21T03:30:02;2.60;;;2.00;;
5813;SDS011;2933;52.302;8.134;2022-08-21T03:35:04;2.63;;;2.43;;
5813;SDS011;2933;52.302;8.134;2022-08-21T03:40:08;4.80;;;2.17;;
5813;SDS011;2933;52.302;8.134;2022-08-21T03:45:11;5.97;;;2.53;;
5813;SDS011;2933;52.302;8.134;2022-08-21T03:50:13;6.67;;;2.63;;
5813;SDS011;2933;52.302;8.134;2022-08-21T03:55:17;5.43;;;2.30;;
5813;SDS011;2933;52.302;8.134;2022-08-21T04:00:19;5.07;;;2.53;;
5813;SDS011;2933;52.302;8.134;2022-08-21T04:05:22;6.40;;;2.40;;
5813;SDS011;2933;52.302;8.134;2022-08-21T04:10:32;2.17;;;2.07;;
5813;SDS011;2933;52.302;8.134;2022-08-21T04:15:35;8.63;;;2.50;;
5813;SDS011;2933;52.302;8.134;2022-08-21T04:20:37;2.90;;;2.70;;
5813;SDS011;2933;52.302;8.134;2022-08-21T04:25:41;2.80;;;2.20;;
5813;SDS011;2933;52.302;8.134;2022-08-21T04:30:43;2.53;;;2.33;;
5813;SDS011;2933;52.302;8.134;2022-08-21T04:35:45;4.10;;;3.53;;
5813;SDS011;2933;52.302;8.134;2022-08-21T04:40:49;6.20;;;2.67;;
5813;SDS011;2933;52.302;8.134;2022-08-21T04:45:51;2.03;;;1.90;;
5813;SDS011;2933;52.302;8.134;2022-08-21T04:50:54;2.43;;;2.27;;
5813;SDS011;2933;52.302;8.134;2022-08-21T04:56:02;3.03;;;2.40;;
5813;SDS011;2933;52.302;8.134;2022-08-21T05:01:08;5.03;;;2.53;;
5813;SDS011;2933;52.302;8.134;2022-08-21T05:06:15;4.57;;;2.20;;
5813;SDS011;2933;52.302;8.134;2022-08-21T05:11:19;2.73;;;2.50;;
5813;SDS011;2933;52.302;8.134;2022-08-21T05:16:22;2.17;;;2.07;;
5813;SDS011;2933;52.302;8.134;2022-08-21T05:21:23;2.43;;;2.23;;
5813;SDS011;2933;52.302;8.134;2022-08-21T05:26:26;2.90;;;2.20;;
5813;SDS011;2933;52.302;8.134;2022-08-21T05:31:28;6.40;;;2.00;;
5813;SDS011;2933;52.302;8.134;2022-08-21T05:36:29;4.67;;;2.90;;
5813;SDS011;2933;52.302;8.134;2022-08-21T05:41:32;7.57;;;2.40;;
5813;SDS011;2933;52.302;8.134;2022-08-21T05:46:34;3.27;;;2.30;;
5813;SDS011;2933;52.302;8.134;2022-08-21T05:51:36;2.60;;;2.40;;
5813;SDS011;2933;52.302;8.134;2022-08-21T05:56:39;2.53;;;2.30;;
5813;SDS011;2933;52.302;8.134;2022-08-21T06:01:44;5.87;;;3.17;;
5813;SDS011;2933;52.302;8.134;2022-08-21T06:06:46;5.40;;;3.30;;
5813;SDS011;2933;52.302;8.134;2022-08-21T06:11:49;6.70;;;3.30;;
5813;SDS011;2933;52.302;8.134;2022-08-21T06:16:51;8.07;;;3.30;;
5813;SDS011;2933;52.302;8.134;2022-08-21T06:21:52;7.80;;;2.50;;
5813;SDS011;2933;52.302;8.134;2022-08-21T06:26:55;4.07;;;2.23;;
5813;SDS011;2933;52.302;8.134;2022-08-21T06:31:57;3.63;;;2.53;;
5813;SDS011;2933;52.302;8.134;2022-08-21T06:36:59;3.60;;;2.80;;
5813;SDS011;2933;52.302;8.134;2022-08-21T06:42:02;8.57;;;2.30;;
5813;SDS011;2933;52.302;8.134;2022-08-21T06:47:04;7.10;;;3.23;;
5813;SDS011;2933;52.302;8.134;2022-08-21T06:52:08;5.30;;;2.57;;
5813;SDS011;2933;52.302;8.134;2022-08-21T06:57:12;3.80;;;2.27;;
5813;SDS011;2933;52.302;8.134;2022-08-21T07:02:13;7.13;;;2.57;;
5813;SDS011;2933;52.302;8.134;2022-08-21T07:07:15;9.80;;;2.33;;
5813;SDS011;2933;52.302;8.134;2022-08-21T07:12:18;5.03;;;2.10;;
5813;SDS011;2933;52.302;8.134;2022-08-21T07:17:20;5.23;;;2.07;;
5813;SDS011;2933;52.302;8.134;2022-08-21T07:22:22;7.50;;;2.10;;
5813;SDS011;2933;52.302;8.134;2022-08-21T07:27:25;4.63;;;1.60;;
5813;SDS011;2933;52.302;8.134;2022-08-21T07:32:27;4.60;;;1.67;;
5813;SDS011;2933;52.302;8.134;2022-08-21T07:37:29;3.00;;;1.57;;
5813;SDS011;2933;52.302;8.134;2022-08-21T07:42:32;3.60;;;1.50;;
5813;SDS011;2933;52.302;8.134;2022-08-21T07:47:33;2.83;;;1.40;;
5813;SDS011;2933;52.302;8.134;2022-08-21T07:52:35;5.40;;;1.97;;
5813;SDS011;2933;52.302;8.134;2022-08-21T07:57:38;4.47;;;1.40;;
5813;SDS011;2933;52.302;8.134;2022-08-21T08:02:40;5.83;;;1.80;;
5813;SDS011;2933;52.302;8.134;2022-08-21T08:07:42;3.20;;;1.60;;
5813;SDS011;2933;52.302;8.134;2022-08-21T08:12:45;4.93;;;1.60;;
5813;SDS011;2933;52.302;8.134;2022-08-21T08:17:47;2.27;;;1.40;;
5813;SDS011;2933;52.302;8.134;2022-08-21T08:22:49;8.20;;;1.73;;
5813;SDS011;2933;52.302;8.134;2022-08-21T08:27:52;4.13;;;1.60;;
5813;SDS011;2933;52.302;8.134;2022-08-21T08:32:54;2.10;;;1.20;;
5813;SDS011;2933;52.302;8.134;2022-08-21T08:37:57;2.90;;;1.53;;
5813;SDS011;2933;52.302;8.134;2022-08-21T08:43:00;1.67;;;1.57;;
5813;SDS011;2933;52.302;8.134;2022-08-21T08:48:02;2.60;;;1.83;;
5813;SDS011;2933;52.302;8.134;2022-08-21T08:53:12;2.60;;;1.70;;
5813;SDS011;2933;52.302;8.134;2022-08-21T08:58:20;4.20;;;2.30;;
5813;SDS011;2933;52.302;8.134;2022-08-21T09:03:25;7.60;;;2.53;;
5813;SDS011;2933;52.302;8.134;2022-08-21T09:08:40;5.93;;;2.37;;
5813;SDS011;2933;52.302;8.134;2022-08-21T09:13:53;4.53;;;2.23;;
5813;SDS011;2933;52.302;8.134;2022-08-21T09:19:03;4.23;;;2.77;;
5813;SDS011;2933;52.302;8.134;2022-08-21T09:24:18;9.33;;;2.40;;
5813;SDS011;2933;52.302;8.134;2022-08-21T09:29:36;6.20;;;2.57;;
5813;SDS011;2933;52.302;8.134;2022-08-21T09:34:39;5.40;;;2.90;;
5813;SDS011;2933;52.302;8.134;2022-08-21T09:39:40;4.60;;;2.70;;
5813;SDS011;2933;52.302;8.134;2022-08-21T09:44:43;6.57;;;2.73;;
5813;SDS011;2933;52.302;8.134;2022-08-21T09:49:45;13.33;;;2.40;;
5813;SDS011;2933;52.302;8.134;2022-08-21T09:54:48;4.80;;;2.90;;
5813;SDS011;2933;52.302;8.134;2022-08-21T09:59:54;5.60;;;2.70;;
5813;SDS011;2933;52.302;8.134;2022-08-21T10:04:56;6.83;;;1.93;;
5813;SDS011;2933;52.302;8.134;2022-08-21T10:10:00;5.03;;;2.13;;
5813;SDS011;2933;52.302;8.134;2022-08-21T10:15:08;8.50;;;2.93;;
5813;SDS011;2933;52.302;8.134;2022-08-21T10:20:17;8.40;;;3.07;;
5813;SDS011;2933;52.302;8.134;2022-08-21T10:25:26;8.53;;;2.57;;
5813;SDS011;2933;52.302;8.134;2022-08-21T10:30:38;3.60;;;2.43;;
5813;SDS011;2933;52.302;8.134;2022-08-21T10:35:47;6.20;;;2.80;;
5813;SDS011;2933;52.302;8.134;2022-08-21T10:40:57;3.83;;;2.60;;
5813;SDS011;2933;52.302;8.134;2022-08-21T10:46:08;5.73;;;2.40;;
5813;SDS011;2933;52.302;8.134;2022-08-21T10:56:33;4.87;;;2.57;;
5813;SDS011;2933;52.302;8.134;2022-08-21T11:01:41;9.97;;;2.33;;
5813;SDS011;2933;52.302;8.134;2022-08-21T11:07:02;4.30;;;2.63;;
5813;SDS011;2933;52.302;8.134;2022-08-21T11:12:09;2.83;;;2.33;;
5813;SDS011;2933;52.302;8.134;2022-08-21T11:17:20;6.03;;;2.90;;
5813;SDS011;2933;52.302;8.134;2022-08-21T11:22:31;6.30;;;2.40;;
5813;SDS011;2933;52.302;8.134;2022-08-21T11:27:39;6.37;;;3.43;;
5813;SDS011;2933;52.302;8.134;2022-08-21T11:38:18;5.27;;;2.73;;
5813;SDS011;2933;52.302;8.134;2022-08-21T11:43:30;3.80;;;2.60;;
5813;SDS011;2933;52.302;8.134;2022-08-21T11:48:40;4.67;;;2.40;;
5813;SDS011;2933;52.302;8.134;2022-08-21T11:53:50;1.80;;;1.70;;
5813;SDS011;2933;52.302;8.134;2022-08-21T11:59:02;2.20;;;1.80;;
5813;SDS011;2933;52.302;8.134;2022-08-21T12:04:16;4.30;;;2.00;;
5813;SDS011;2933;52.302;8.134;2022-08-21T12:09:30;2.30;;;1.53;;
5813;SDS011;2933;52.302;8.134;2022-08-21T12:14:37;2.03;;;1.43;;
5813;SDS011;2933;52.302;8.134;2022-08-21T12:19:42;2.33;;;1.80;;
5813;SDS011;2933;52.302;8.134;2022-08-21T12:24:45;3.67;;;1.53;;
5813;SDS011;2933;52.302;8.134;2022-08-21T12:29:50;3.83;;;1.40;;
5813;SDS011;2933;52.302;8.134;2022-08-21T12:34:55;2.50;;;1.33;;
5813;SDS011;2933;52.302;8.134;2022-08-21T12:40:04;2.10;;;1.17;;
5813;SDS011;2933;52.302;8.134;2022-08-21T12:45:17;1.90;;;1.03;;
5813;SDS011;2933;52.302;8.134;2022-08-21T12:50:24;1.33;;;0.80;;
5813;SDS011;2933;52.302;8.134;2022-08-21T12:55:37;1.83;;;1.40;;
5813;SDS011;2933;52.302;8.134;2022-08-21T13:00:44;2.80;;;1.50;;
5813;SDS011;2933;52.302;8.134;2022-08-21T13:05:52;1.30;;;1.10;;
5813;SDS011;2933;52.302;8.134;2022-08-21T13:10:58;2.93;;;1.10;;
5813;SDS011;2933;52.302;8.134;2022-08-21T13:16:02;2.10;;;1.00;;
5813;SDS011;2933;52.302;8.134;2022-08-21T13:21:09;2.00;;;1.13;;
5813;SDS011;2933;52.302;8.134;2022-08-21T13:26:13;3.00;;;1.07;;
5813;SDS011;2933;52.302;8.134;2022-08-21T13:31:17;2.00;;;1.00;;
5813;SDS011;2933;52.302;8.134;2022-08-21T13:36:32;1.33;;;0.83;;
5813;SDS011;2933;52.302;8.134;2022-08-21T13:41:37;0.73;;;0.73;;
5813;SDS011;2933;52.302;8.134;2022-08-21T13:46:41;1.47;;;0.67;;
5813;SDS011;2933;52.302;8.134;2022-08-21T13:51:45;1.00;;;1.00;;
5813;SDS011;2933;52.302;8.134;2022-08-21T13:56:50;1.33;;;0.90;;
5813;SDS011;2933;52.302;8.134;2022-08-21T14:01:52;3.13;;;1.50;;
5813;SDS011;2933;52.302;8.134;2022-08-21T14:07:00;0.90;;;0.90;;
5813;SDS011;2933;52.302;8.134;2022-08-21T14:12:10;8.37;;;1.40;;
5813;SDS011;2933;52.302;8.134;2022-08-21T14:17:26;1.77;;;1.10;;
5813;SDS011;2933;52.302;8.134;2022-08-21T14:22:32;2.07;;;1.20;;
5813;SDS011;2933;52.302;8.134;2022-08-21T14:27:39;1.53;;;1.27;;
5813;SDS011;2933;52.302;8.134;2022-08-21T14:32:44;3.23;;;1.20;;
5813;SDS011;2933;52.302;8.134;2022-08-21T14:37:48;2.97;;;1.20;;
5813;SDS011;2933;52.302;8.134;2022-08-21T14:42:51;2.40;;;1.00;;
5813;SDS011;2933;52.302;8.134;2022-08-21T14:47:53;3.60;;;1.07;;
5813;SDS011;2933;52.302;8.134;2022-08-21T14:52:56;2.03;;;1.10;;
5813;SDS011;2933;52.302;8.134;2022-08-21T14:57:57;1.10;;;1.00;;
5813;SDS011;2933;52.302;8.134;2022-08-21T15:02:59;3.30;;;1.00;;
5813;SDS011;2933;52.302;8.134;2022-08-21T15:08:02;1.80;;;1.10;;
5813;SDS011;2933;52.302;8.134;2022-08-21T15:13:04;2.20;;;1.07;;
5813;SDS011;2933;52.302;8.134;2022-08-21T15:18:07;2.17;;;1.20;;
5813;SDS011;2933;52.302;8.134;2022-08-21T15:23:10;2.27;;;1.10;;
5813;SDS011;2933;52.302;8.134;2022-08-21T15:28:12;3.77;;;1.30;;
5813;SDS011;2933;52.302;8.134;2022-08-21T15:33:16;6.60;;;1.13;;
5813;SDS011;2933;52.302;8.134;2022-08-21T15:38:20;1.53;;;1.40;;
5813;SDS011;2933;52.302;8.134;2022-08-21T15:43:22;6.93;;;1.73;;
5813;SDS011;2933;52.302;8.134;2022-08-21T15:48:27;1.20;;;1.00;;
5813;SDS011;2933;52.302;8.134;2022-08-21T15:53:31;1.53;;;1.00;;
5813;SDS011;2933;52.302;8.134;2022-08-21T15:58:36;5.40;;;1.50;;
5813;SDS011;2933;52.302;8.134;2022-08-21T16:03:39;4.70;;;1.40;;
5813;SDS011;2933;52.302;8.134;2022-08-21T16:08:42;0.77;;;0.77;;
5813;SDS011;2933;52.302;8.134;2022-08-21T16:13:44;1.17;;;1.07;;
5813;SDS011;2933;52.302;8.134;2022-08-21T16:18:47;1.70;;;1.10;;
5813;SDS011;2933;52.302;8.134;2022-08-21T16:23:51;6.73;;;1.33;;
5813;SDS011;2933;52.302;8.134;2022-08-21T16:28:54;2.60;;;1.20;;
5813;SDS011;2933;52.302;8.134;2022-08-21T16:33:58;1.60;;;1.30;;
5813;SDS011;2933;52.302;8.134;2022-08-21T16:39:02;2.40;;;1.10;;
5813;SDS011;2933;52.302;8.134;2022-08-21T16:44:04;2.27;;;1.43;;
5813;SDS011;2933;52.302;8.134;2022-08-21T16:49:06;3.73;;;1.20;;
5813;SDS011;2933;52.302;8.134;2022-08-21T16:54:10;2.33;;;1.20;;
5813;SDS011;2933;52.302;8.134;2022-08-21T16:59:12;4.13;;;1.20;;
5813;SDS011;2933;52.302;8.134;2022-08-21T17:04:14;2.70;;;1.20;;
5813;SDS011;2933;52.302;8.134;2022-08-21T17:09:17;4.77;;;1.27;;
5813;SDS011;2933;52.302;8.134;2022-08-21T17:14:20;3.57;;;1.23;;
5813;SDS011;2933;52.302;8.134;2022-08-21T17:19:23;3.40;;;1.00;;
5813;SDS011;2933;52.302;8.134;2022-08-21T17:24:26;1.63;;;1.20;;
5813;SDS011;2933;52.302;8.134;2022-08-21T17:29:29;3.03;;;1.10;;
5813;SDS011;2933;52.302;8.134;2022-08-21T17:34:33;2.10;;;1.30;;
5813;SDS011;2933;52.302;8.134;2022-08-21T17:39:38;3.47;;;1.20;;
5813;SDS011;2933;52.302;8.134;2022-08-21T17:44:41;1.53;;;0.90;;
5813;SDS011;2933;52.302;8.134;2022-08-21T17:49:44;1.83;;;1.00;;
5813;SDS011;2933;52.302;8.134;2022-08-21T17:54:48;2.60;;;1.20;;
5813;SDS011;2933;52.302;8.134;2022-08-21T17:59:50;3.97;;;1.20;;
5813;SDS011;2933;52.302;8.134;2022-08-21T18:04:51;1.67;;;1.20;;
5813;SDS011;2933;52.302;8.134;2022-08-21T18:09:56;4.70;;;1.70;;
5813;SDS011;2933;52.302;8.134;2022-08-21T18:14:58;1.27;;;1.17;;
5813;SDS011;2933;52.302;8.134;2022-08-21T18:20:02;3.90;;;1.13;;
5813;SDS011;2933;52.302;8.134;2022-08-21T18:25:07;1.53;;;1.40;;
5813;SDS011;2933;52.302;8.134;2022-08-21T18:30:09;1.83;;;1.23;;
5813;SDS011;2933;52.302;8.134;2022-08-21T18:35:12;1.67;;;1.40;;
5813;SDS011;2933;52.302;8.134;2022-08-21T18:40:17;4.10;;;1.50;;
5813;SDS011;2933;52.302;8.134;2022-08-21T18:45:20;5.00;;;1.60;;
5813;SDS011;2933;52.302;8.134;2022-08-21T18:50:23;4.80;;;1.73;;
5813;SDS011;2933;52.302;8.134;2022-08-21T18:55:27;2.60;;;1.80;;
5813;SDS011;2933;52.302;8.134;2022-08-21T19:00:30;3.80;;;1.57;;
5813;SDS011;2933;52.302;8.134;2022-08-21T19:05:36;2.30;;;1.23;;
5813;SDS011;2933;52.302;8.134;2022-08-21T19:10:44;3.93;;;1.50;;
5813;SDS011;2933;52.302;8.134;2022-08-21T19:15:48;5.00;;;1.40;;
5813;SDS011;2933;52.302;8.134;2022-08-21T19:20:52;4.53;;;1.63;;
5813;SDS011;2933;52.302;8.134;2022-08-21T19:25:55;2.77;;;1.20;;
5813;SDS011;2933;52.302;8.134;2022-08-21T19:30:59;1.77;;;1.30;;
5813;SDS011;2933;52.302;8.134;2022-08-21T19:36:05;3.10;;;1.50;;
5813;SDS011;2933;52.302;8.134;2022-08-21T19:41:11;3.77;;;1.83;;
5813;SDS011;2933;52.302;8.134;2022-08-21T19:46:18;3.67;;;1.40;;
5813;SDS011;2933;52.302;8.134;2022-08-21T19:51:22;2.90;;;1.73;;
5813;SDS011;2933;52.302;8.134;2022-08-21T19:56:26;1.70;;;1.60;;
5813;SDS011;2933;52.302;8.134;2022-08-21T20:06:45;3.00;;;1.60;;
5813;SDS011;2933;52.302;8.134;2022-08-21T20:11:49;4.20;;;1.30;;
5813;SDS011;2933;52.302;8.134;2022-08-21T20:16:52;1.60;;;1.30;;
5813;SDS011;2933;52.302;8.134;2022-08-21T20:21:55;3.97;;;1.93;;
5813;SDS011;2933;52.302;8.134;2022-08-21T20:26:59;2.33;;;1.70;;
5813;SDS011;2933;52.302;8.134;2022-08-21T20:32:02;4.03;;;1.40;;
5813;SDS011;2933;52.302;8.134;2022-08-21T20:37:06;1.73;;;1.27;;
5813;SDS011;2933;52.302;8.134;2022-08-21T20:42:09;1.57;;;1.47;;
5813;SDS011;2933;52.302;8.134;2022-08-21T20:47:11;2.30;;;1.60;;
5813;SDS011;2933;52.302;8.134;2022-08-21T20:52:15;2.43;;;1.20;;
5813;SDS011;2933;52.302;8.134;2022-08-21T20:57:19;2.23;;;1.30;;
5813;SDS011;2933;52.302;8.134;2022-08-21T21:02:30;1.33;;;1.20;;
5813;SDS011;2933;52.302;8.134;2022-08-21T21:07:47;4.20;;;1.30;;
5813;SDS011;2933;52.302;8.134;2022-08-21T21:12:57;4.10;;;1.53;;
5813;SDS011;2933;52.302;8.134;2022-08-21T21:18:07;6.30;;;2.00;;
5813;SDS011;2933;52.302;8.134;2022-08-21T21:23:15;3.33;;;1.70;;
5813;SDS011;2933;52.302;8.134;2022-08-21T21:28:25;4.23;;;1.20;;
5813;SDS011;2933;52.302;8.134;2022-08-21T21:33:30;3.13;;;2.00;;
5813;SDS011;2933;52.302;8.134;2022-08-21T21:38:35;7.20;;;2.10;;
5813;SDS011;2933;52.302;8.134;2022-08-21T21:43:52;2.70;;;1.50;;
5813;SDS011;2933;52.302;8.134;2022-08-21T21:49:08;6.87;;;2.00;;
5813;SDS011;2933;52.302;8.134;2022-08-21T21:54:31;3.67;;;1.63;;
5813;SDS011;2933;52.302;8.134;2022-08-21T21:59:56;2.50;;;1.73;;
5813;SDS011;2933;52.302;8.134;2022-08-21T22:05:03;2.00;;;1.80;;
5813;SDS011;2933;52.302;8.134;2022-08-21T22:10:10;3.27;;;2.00;;
5813;SDS011;2933;52.302;8.134;2022-08-21T22:15:20;6.17;;;2.43;;
5813;SDS011;2933;52.302;8.134;2022-08-21T22:20:23;6.70;;;2.03;;
5813;SDS011;2933;52.302;8.134;2022-08-21T22:25:32;8.73;;;2.63;;
5813;SDS011;2933;52.302;8.134;2022-08-21T22:30:39;2.23;;;2.03;;
5813;SDS011;2933;52.302;8.134;2022-08-21T22:35:44;6.47;;;3.03;;
5813;SDS011;2933;52.302;8.134;2022-08-21T22:40:48;3.57;;;1.70;;
5813;SDS011;2933;52.302;8.134;2022-08-21T22:45:54;6.03;;;2.10;;
5813;SDS011;2933;52.302;8.134;2022-08-21T22:51:01;5.53;;;1.60;;
5813;SDS011;2933;52.302;8.134;2022-08-21T22:56:05;2.70;;;1.63;;
5813;SDS011;2933;52.302;8.134;2022-08-21T23:01:11;7.00;;;2.47;;
5813;SDS011;2933;52.302;8.134;2022-08-21T23:06:33;5.40;;;2.17;;
5813;SDS011;2933;52.302;8.134;2022-08-21T23:11:41;3.10;;;2.00;;
5813;SDS011;2933;52.302;8.134;2022-08-21T23:16:49;5.23;;;1.80;;
5813;SDS011;2933;52.302;8.134;2022-08-21T23:21:57;2.60;;;1.80;;
5813;SDS011;2933;52.302;8.134;2022-08-21T23:27:22;4.43;;;2.30;;
5813;SDS011;2933;52.302;8.134;2022-08-21T23:32:46;3.43;;;1.70;;
5813;SDS011;2933;52.302;8.134;2022-08-21T23:37:58;6.70;;;2.43;;
5813;SDS011;2933;52.302;8.134;2022-08-21T23:43:16;4.53;;;1.77;;
5813;SDS011;2933;52.302;8.134;2022-08-21T23:48:29;2.63;;;2.43;;
5813;SDS011;2933;52.302;8.134;2022-08-21T23:53:42;3.83;;;2.00;;
5813;SDS011;2933;52.302;8.134;2022-08-21T23:58:54;5.73;;;2.30;;
